Time;durP1;ratioP1;P1;durP2;ratioP2;P2;SDS_P1;SDS_P2;PMS_P1;PMS_P2;Temp;Humidity;BMP_temperature;BMP_pressure;BME280_temperature;BME280_humidity;BME280_pressure;Samples;Min_cycle;Max_cycle;Signal;HPM_P1;HPM_P2
2022/01/05 00:01:47;;;;;;;3.33;3.22;;;;;;;1.50;100.00;99575.34;4380109;32;20660;-72
2022/01/05 00:04:12;;;;;;;2.90;2.80;;;;;;;1.83;100.00;99635.44;4393658;32;20089;-70
2022/01/05 00:06:37;;;;;;;2.92;2.83;;;;;;;1.82;100.00;99638.91;4386571;32;20085;-72
2022/01/05 00:09:03;;;;;;;3.00;2.83;;;;;;;1.96;100.00;99654.00;4380586;32;20318;-70
2022/01/05 00:11:28;;;;;;;5.25;5.03;;;;;;;1.60;100.00;99579.31;4380829;32;20080;-70
2022/01/05 00:13:56;;;;;;;2.80;2.70;;;;;;;1.70;100.00;99588.44;4388968;32;20066;-70
2022/01/05 00:16:21;;;;;;;4.75;4.55;;;;;;;2.05;100.00;99652.84;4391395;32;20319;-69
2022/01/05 00:18:46;;;;;;;2.75;2.65;;;;;;;2.05;100.00;99653.69;4372859;32;20077;-71
2022/01/05 00:21:12;;;;;;;2.62;2.53;;;;;;;2.12;100.00;99654.31;4380645;32;20140;-70
2022/01/05 00:23:37;;;;;;;3.35;3.25;;;;;;;2.09;100.00;99657.03;4375607;32;20066;-71
2022/01/05 00:26:04;;;;;;;2.90;2.80;;;;;;;0.78;100.00;99460.53;4382589;32;20661;-70
2022/01/05 00:28:30;;;;;;;4.50;4.30;;;;;;;1.91;100.00;99669.66;4379826;32;20073;-70
2022/01/05 00:30:55;;;;;;;2.87;2.78;;;;;;;1.95;100.00;99671.25;4379027;32;20807;-70
2022/01/05 00:33:20;;;;;;;3.83;3.67;;;;;;;1.96;100.00;99672.94;4376591;32;20087;-71
2022/01/05 00:35:46;;;;;;;2.90;2.80;;;;;;;1.94;100.00;99674.72;4379607;32;20792;-71
2022/01/05 00:38:11;;;;;;;2.80;2.70;;;;;;;1.99;100.00;99688.37;4383887;32;20069;-71
2022/01/05 00:40:36;;;;;;;3.30;2.97;;;;;;;1.95;100.00;99663.50;4381422;32;20679;-70
2022/01/05 00:43:02;;;;;;;2.97;2.87;;;;;;;2.03;100.00;99688.28;4386015;32;20104;-70
2022/01/05 00:45:27;;;;;;;4.35;4.15;;;;;;;1.88;100.00;99680.09;4380072;32;20064;-71
2022/01/05 00:47:52;;;;;;;2.83;2.72;;;;;;;1.87;100.00;99686.19;4382749;32;20087;-71
2022/01/05 00:50:18;;;;;;;3.20;3.08;;;;;;;1.83;100.00;99689.78;4374301;32;20649;-72
2022/01/05 00:52:43;;;;;;;2.90;2.80;;;;;;;1.86;100.00;99684.50;4382177;32;20073;-70
2022/01/05 00:55:09;;;;;;;3.30;3.20;;;;;;;1.87;100.00;99685.34;4384142;32;20065;-71
2022/01/05 00:57:34;;;;;;;4.47;4.28;;;;;;;1.90;100.00;99675.72;4378940;32;20222;-71
2022/01/05 00:59:59;;;;;;;3.28;3.08;;;;;;;1.87;100.00;99675.84;4380197;32;20077;-70
2022/01/05 01:02:25;;;;;;;4.75;4.55;;;;;;;1.71;100.00;99644.47;4381986;32;20634;-72
2022/01/05 01:04:50;;;;;;;3.10;3.00;;;;;;;1.94;100.00;99674.72;4377947;32;20105;-70
2022/01/05 01:07:16;;;;;;;3.97;3.00;;;;;;;1.95;100.00;99684.19;4379567;32;20100;-73
2022/01/05 01:09:41;;;;;;;3.10;3.00;;;;;;;1.90;100.00;99678.31;4385271;32;20570;-73
2022/01/05 01:12:07;;;;;;;2.70;2.60;;;;;;;0.76;100.00;99498.47;4382595;32;20060;-72
2022/01/05 01:14:32;;;;;;;4.15;3.95;;;;;;;1.87;100.00;99681.03;4380581;32;20168;-73
2022/01/05 01:16:58;;;;;;;3.10;3.00;;;;;;;1.88;100.00;99690.47;4378901;32;20092;-72
2022/01/05 01:19:23;;;;;;;4.30;4.10;;;;;;;1.88;100.00;99679.28;4382459;32;20111;-74
2022/01/05 01:21:49;;;;;;;2.90;2.80;;;;;;;1.82;100.00;99690.66;4378314;32;20599;-73
2022/01/05 01:24:14;;;;;;;2.80;2.70;;;;;;;1.79;100.00;99670.09;4381584;32;20107;-72
2022/01/05 01:26:39;;;;;;;3.00;2.90;;;;;;;1.59;100.00;99643.13;4358891;32;20390;-71
2022/01/05 01:29:05;;;;;;;2.80;2.70;;;;;;;2.08;100.00;99691.56;4358987;32;20546;-72
2022/01/05 01:31:31;;;;;;;4.45;4.25;;;;;;;1.95;100.00;99686.78;4388754;32;20587;-71
2022/01/05 01:33:56;;;;;;;3.20;3.10;;;;;;;1.65;100.00;99636.91;4380634;32;20073;-72
2022/01/05 01:36:21;;;;;;;4.72;4.53;;;;;;;2.02;100.00;99694.34;4377769;32;20080;-71
2022/01/05 01:38:47;;;;;;;2.97;2.87;;;;;;;1.99;100.00;99683.19;4380244;32;20073;-72
2022/01/05 01:41:12;;;;;;;3.00;2.90;;;;;;;1.98;100.00;99688.41;4378736;32;20077;-72
2022/01/05 01:43:38;;;;;;;3.03;2.92;;;;;;;1.97;100.00;99697.94;4382056;32;20917;-72
2022/01/05 01:46:04;;;;;;;3.05;2.95;;;;;;;1.94;100.00;99703.19;4375132;32;20079;-72
2022/01/05 01:48:30;;;;;;;4.55;4.35;;;;;;;1.97;100.00;99705.69;4382723;32;20796;-69
2022/01/05 01:50:55;;;;;;;2.90;2.80;;;;;;;1.86;100.00;99697.41;4370451;32;20177;-74
2022/01/05 01:53:20;;;;;;;4.25;4.05;;;;;;;1.86;100.00;99691.41;4380769;32;20579;-72
2022/01/05 01:55:47;;;;;;;3.00;2.90;;;;;;;1.79;100.00;99694.19;4383256;32;20072;-72
2022/01/05 01:58:12;;;;;;;3.00;2.90;;;;;;;0.98;100.00;99577.84;4379394;32;20175;-72
2022/01/05 02:00:37;;;;;;;3.05;2.95;;;;;;;0.70;100.00;99527.06;4374047;32;20246;-70
2022/01/05 02:03:03;;;;;;;2.85;2.75;;;;;;;1.69;100.00;99699.72;4382110;32;20188;-69
2022/01/05 02:05:28;;;;;;;4.10;3.90;;;;;;;1.65;100.00;99706.72;4379827;32;20065;-73
2022/01/05 02:07:54;;;;;;;3.00;2.90;;;;;;;1.32;100.00;99669.84;4381001;32;20154;-74
2022/01/05 02:10:19;;;;;;;3.67;3.53;;;;;;;1.66;100.00;99707.56;4388461;32;20116;-72
2022/01/05 02:12:44;;;;;;;2.70;2.60;;;;;;;1.64;100.00;99712.78;4380118;32;20613;-74
2022/01/05 02:15:10;;;;;;;2.90;2.80;;;;;;;1.59;100.00;99706.94;4381305;32;20068;-71
2022/01/05 02:17:46;;;;;;;3.55;3.45;;;;;;;1.58;100.00;99710.38;4379670;32;20089;-72
2022/01/05 02:20:14;;;;;;;2.80;2.70;;;;;;;1.63;100.00;99707.69;4383395;32;20084;-70
2022/01/05 02:22:39;;;;;;;2.65;2.55;;;;;;;1.45;100.00;99691.84;4376291;32;20653;-72
2022/01/05 02:25:05;;;;;;;2.70;2.60;;;;;;;1.58;100.00;99725.91;4385635;32;20060;-73
2022/01/05 02:27:30;;;;;;;4.68;4.47;;;;;;;1.49;100.00;99728.78;4367354;32;20523;-72
2022/01/05 02:29:55;;;;;;;2.65;2.55;;;;;;;1.49;100.00;99727.03;4382251;32;20091;-72
2022/01/05 02:32:21;;;;;;;4.65;4.45;;;;;;;1.45;100.00;99722.88;4376747;32;20081;-73
2022/01/05 02:34:46;;;;;;;2.70;2.60;;;;;;;1.39;100.00;99723.06;4380800;32;20696;-69
2022/01/05 02:37:11;;;;;;;2.60;2.50;;;;;;;1.42;100.00;99735.88;4393915;32;20103;-71
2022/01/05 02:39:37;;;;;;;3.37;3.28;;;;;;;1.34;100.00;99717.16;4374724;32;20058;-71
2022/01/05 02:42:02;;;;;;;2.80;2.70;;;;;;;1.39;100.00;99733.38;4378343;32;20079;-73
2022/01/05 02:44:27;;;;;;;4.20;4.00;;;;;;;1.34;100.00;99737.84;4385339;32;20084;-72
2022/01/05 02:46:53;;;;;;;2.80;2.70;;;;;;;1.34;100.00;99750.75;4379283;32;20583;-72
2022/01/05 02:49:18;;;;;;;3.60;3.45;;;;;;;1.37;100.00;99755.84;4381339;32;20154;-68
2022/01/05 02:51:43;;;;;;;2.90;2.80;;;;;;;1.40;100.00;99760.91;4380580;32;20072;-73
2022/01/05 02:54:09;;;;;;;2.97;2.87;;;;;;;1.42;100.00;99760.88;4381118;32;20065;-71
2022/01/05 02:56:34;;;;;;;3.50;3.40;;;;;;;1.37;100.00;99758.44;4379805;32;20350;-73
2022/01/05 02:59:01;;;;;;;2.80;2.70;;;;;;;1.37;100.00;99767.03;4381488;32;20136;-72
2022/01/05 03:01:27;;;;;;;4.85;4.65;;;;;;;1.36;100.00;99764.50;4378739;32;20076;-72
2022/01/05 03:03:52;;;;;;;2.90;2.80;;;;;;;1.34;100.00;99763.69;4381971;32;20076;-72
2022/01/05 03:06:18;;;;;;;3.10;2.97;;;;;;;0.85;100.00;99713.44;4379528;32;20419;-74
2022/01/05 03:08:43;;;;;;;2.70;2.60;;;;;;;1.23;100.00;99781.25;4391576;32;20184;-72
2022/01/05 03:11:08;;;;;;;2.70;2.60;;;;;;;1.16;100.00;99786.59;4380342;32;20580;-74
2022/01/05 03:13:34;;;;;;;3.42;3.33;;;;;;;0.96;100.00;99761.31;4375485;32;20518;-72
2022/01/05 03:15:59;;;;;;;2.72;2.62;;;;;;;1.06;100.00;99799.81;4379389;32;20863;-72
2022/01/05 03:18:24;;;;;;;4.55;4.35;;;;;;;1.04;100.00;99797.25;4360162;32;20097;-73
2022/01/05 03:20:50;;;;;;;2.80;2.70;;;;;;;1.03;100.00;99805.91;4385675;32;20096;-71
2022/01/05 03:23:15;;;;;;;2.70;2.60;;;;;;;1.11;100.00;99803.13;4393008;32;20094;-72
2022/01/05 03:25:42;;;;;;;2.60;2.50;;;;;;;1.05;100.00;99811.88;4383945;32;20099;-71
2022/01/05 03:28:08;;;;;;;2.70;2.60;;;;;;;0.91;100.00;99798.50;4373975;32;20069;-73
2022/01/05 03:30:33;;;;;;;4.65;4.45;;;;;;;1.05;100.00;99821.38;4385558;32;20091;-73
2022/01/05 03:35:28;;;;;;;4.00;3.83;;;;;;;0.44;100.00;99759.28;4379132;32;20274;-72
2022/01/05 03:37:53;;;;;;;2.60;2.50;;;;;;;0.94;100.00;99813.91;4387951;32;20801;-73
2022/01/05 03:40:19;;;;;;;2.80;2.70;;;;;;;0.67;100.00;99779.34;4381888;32;20069;-73
2022/01/05 03:42:44;;;;;;;2.90;2.80;;;;;;;0.97;100.00;99832.75;4381917;32;21094;-71
2022/01/05 03:45:09;;;;;;;2.60;2.50;;;;;;;0.77;100.00;99794.53;4382791;32;20175;-73
2022/01/05 03:47:35;;;;;;;4.65;4.45;;;;;;;0.54;100.00;99779.66;4366670;32;20099;-72
2022/01/05 03:50:00;;;;;;;2.58;2.47;;;;;;;0.28;100.00;99754.53;4386839;32;20160;-72
2022/01/05 03:52:25;;;;;;;4.37;4.18;;;;;;;0.83;100.00;99836.59;4382461;32;20135;-74
2022/01/05 03:54:51;;;;;;;2.90;2.80;;;;;;;0.78;100.00;99847.91;4382157;32;20073;-71
2022/01/05 03:57:16;;;;;;;2.87;2.78;;;;;;;0.43;100.00;99807.47;4393812;32;20657;-73
2022/01/05 03:59:42;;;;;;;2.65;2.55;;;;;;;0.63;100.00;99830.22;4378478;32;20235;-71
2022/01/05 04:02:07;;;;;;;2.78;2.67;;;;;;;0.73;100.00;99862.66;4393429;32;20062;-71
2022/01/05 04:04:32;;;;;;;4.30;4.10;;;;;;;0.71;100.00;99866.16;4377401;32;20175;-72
2022/01/05 04:06:58;;;;;;;2.70;2.60;;;;;;;0.73;100.00;99865.25;4378812;32;20323;-72
2022/01/05 04:09:23;;;;;;;4.25;4.05;;;;;;;0.55;100.00;99847.63;4387008;32;20095;-72
2022/01/05 04:11:48;;;;;;;2.80;2.70;;;;;;;0.66;100.00;99875.75;4384457;32;20126;-71
2022/01/05 04:14:14;;;;;;;2.60;2.50;;;;;;;0.64;100.00;99878.37;4384398;32;20081;-71
2022/01/05 04:16:39;;;;;;;2.72;2.62;;;;;;;0.61;100.00;99881.03;4375500;32;20081;-73
2022/01/05 04:19:04;;;;;;;2.50;2.40;;;;;;;0.59;100.00;99873.31;4380467;32;20088;-71
2022/01/05 04:21:30;;;;;;;4.28;4.07;;;;;;;0.54;100.00;99879.47;4385494;32;20081;-73
2022/01/05 04:23:55;;;;;;;3.00;2.90;;;;;;;0.58;100.00;99889.72;4378500;32;20066;-73
2022/01/05 04:26:20;;;;;;;4.35;4.15;;;;;;;0.71;100.00;99892.84;4381009;32;20096;-71
2022/01/05 04:28:46;;;;;;;3.00;2.90;;;;;;;0.71;100.00;99898.00;4378550;32;20092;-74
2022/01/05 04:31:11;;;;;;;2.60;2.50;;;;;;;0.77;100.00;99897.84;4374365;32;20127;-72
2022/01/05 04:33:36;;;;;;;2.78;2.60;;;;;;;0.72;100.00;99902.28;4381402;32;20058;-71
2022/01/05 04:36:02;;;;;;;2.65;2.55;;;;;;;0.77;100.00;99909.91;4382085;32;20093;-72
2022/01/05 04:38:27;;;;;;;4.45;4.25;;;;;;;0.67;100.00;99913.62;4377796;32;20575;-73
2022/01/05 04:40:54;;;;;;;2.62;2.53;;;;;;;0.67;100.00;99913.62;4366396;32;20095;-73
2022/01/05 04:43:19;;;;;;;3.58;3.42;;;;;;;0.64;100.00;99914.50;4379157;32;20798;-71
2022/01/05 04:45:45;;;;;;;2.50;2.40;;;;;;;0.34;100.00;99874.78;4383693;32;20077;-73
2022/01/05 04:48:10;;;;;;;2.50;2.40;;;;;;;0.52;100.00;99902.78;4380185;32;20183;-73
2022/01/05 04:50:35;;;;;;;3.42;3.33;;;;;;;-0.41;100.00;99753.56;4382337;32;20450;-72
2022/01/05 04:53:01;;;;;;;2.70;2.60;;;;;;;0.55;100.00;99927.66;4384049;32;20066;-71
2022/01/05 04:55:26;;;;;;;13.65;4.90;;;;;;;0.19;100.00;99868.28;4381244;32;20104;-72
2022/01/05 04:57:51;;;;;;;2.58;2.47;;;;;;;0.61;99.86;99924.94;4381554;32;20070;-73
2022/01/05 05:00:17;;;;;;;2.75;2.65;;;;;;;0.63;99.07;99938.66;4380390;32;20330;-74
2022/01/05 05:02:42;;;;;;;2.70;2.60;;;;;;;0.44;98.92;99907.28;4383863;32;20096;-72
2022/01/05 05:05:08;;;;;;;2.50;2.40;;;;;;;0.46;99.49;99933.91;4385658;32;20084;-71
2022/01/05 05:07:33;;;;;;;4.20;4.00;;;;;;;0.42;99.75;99934.81;4380157;32;20061;-73
2022/01/05 05:09:58;;;;;;;2.60;2.50;;;;;;;0.34;99.67;99918.66;4378765;32;20211;-73
2022/01/05 05:12:24;;;;;;;3.92;3.75;;;;;;;0.29;100.00;99923.94;4377394;32;20079;-71
2022/01/05 05:14:50;;;;;;;2.70;2.60;;;;;;;0.34;100.00;99932.44;4389773;32;20544;-73
2022/01/05 05:17:16;;;;;;;2.70;2.60;;;;;;;0.37;100.00;99940.09;4381999;32;20089;-74
2022/01/05 05:19:41;;;;;;;2.50;2.40;;;;;;;0.05;100.00;99893.53;4380887;32;20080;-71
2022/01/05 05:22:06;;;;;;;2.90;2.80;;;;;;;0.41;100.00;99935.72;4381185;32;20061;-72
2022/01/05 05:24:32;;;;;;;4.28;4.07;;;;;;;0.39;99.84;99932.31;4377425;32;20084;-71
2022/01/05 05:26:57;;;;;;;2.70;2.60;;;;;;;0.29;99.45;99936.00;4377553;32;20598;-72
2022/01/05 05:29:22;;;;;;;4.15;3.95;;;;;;;0.37;99.32;99947.84;4380096;32;20069;-72
2022/01/05 05:31:48;;;;;;;2.70;2.60;;;;;;;0.33;99.11;99929.88;4376304;32;20144;-71
2022/01/05 05:34:13;;;;;;;2.80;2.70;;;;;;;0.22;98.21;99927.56;4384720;32;20619;-72
2022/01/05 05:36:38;;;;;;;2.87;2.78;;;;;;;0.36;97.99;99956.47;4379024;32;20061;-73
2022/01/05 05:39:04;;;;;;;2.60;2.50;;;;;;;-0.12;97.27;99844.88;4391294;32;20064;-71
2022/01/05 05:41:29;;;;;;;4.30;4.10;;;;;;;0.54;97.05;99941.44;4378815;32;20069;-71
2022/01/05 05:43:54;;;;;;;2.40;2.30;;;;;;;0.56;95.99;99944.84;4378691;32;20069;-73
2022/01/05 05:46:20;;;;;;;3.92;3.78;;;;;;;0.09;95.37;99857.31;4390511;32;20083;-71
2022/01/05 05:48:45;;;;;;;2.40;2.30;;;;;;;0.56;95.68;99952.59;4382692;32;20068;-74
2022/01/05 05:51:11;;;;;;;2.60;2.50;;;;;;;0.46;95.79;99949.38;4383502;32;20096;-73
2022/01/05 05:53:36;;;;;;;3.40;3.30;;;;;;;0.43;96.02;99944.28;4380855;32;20873;-72
2022/01/05 05:56:02;;;;;;;3.03;2.92;;;;;;;0.46;95.80;99954.56;4379448;32;20099;-71
2022/01/05 05:58:27;;;;;;;4.45;4.25;;;;;;;0.21;96.54;99914.69;4380635;32;20093;-71
2022/01/05 06:00:53;;;;;;;2.55;2.45;;;;;;;0.52;97.12;99967.31;4379610;32;20085;-72
2022/01/05 06:03:18;;;;;;;3.08;2.97;;;;;;;0.48;95.88;99950.19;4377789;32;20310;-73
2022/01/05 06:05:43;;;;;;;2.50;2.40;;;;;;;0.73;96.13;99963.37;4378472;32;20057;-72
2022/01/05 06:08:09;;;;;;;2.50;2.40;;;;;;;0.79;95.93;99970.97;4376662;32;20142;-72
2022/01/05 06:10:35;;;;;;;3.70;3.60;;;;;;;0.79;95.30;99970.13;4386547;32;20463;-72
2022/01/05 06:13:00;;;;;;;2.60;2.50;;;;;;;0.74;95.99;99957.34;4380489;32;20080;-71
2022/01/05 06:15:25;;;;;;;4.25;4.05;;;;;;;0.72;95.71;99946.19;4388302;32;20113;-74
2022/01/05 06:17:51;;;;;;;2.60;2.50;;;;;;;0.76;95.24;99960.72;4385399;32;20072;-72
2022/01/05 06:20:17;;;;;;;2.50;2.40;;;;;;;-0.63;94.29;99760.94;4388679;32;20076;-73
2022/01/05 06:22:42;;;;;;;2.53;2.42;;;;;;;0.77;95.25;99971.91;4369104;32;20073;-73
2022/01/05 06:25:09;;;;;;;2.50;2.40;;;;;;;0.76;94.68;99963.31;4392583;32;20820;-73
2022/01/05 06:27:34;;;;;;;4.35;4.15;;;;;;;0.93;94.36;99982.72;4380851;32;20096;-72
2022/01/05 06:30:04;;;;;;;2.60;2.50;;;;;;;0.96;94.59;99987.78;4386267;32;20058;-72
2022/01/05 06:32:29;;;;;;;3.90;3.75;;;;;;;1.02;93.32;99990.22;4373944;32;20092;-72
2022/01/05 06:34:55;;;;;;;2.70;2.60;;;;;;;1.11;93.46;100000.34;4379430;32;20265;-73
2022/01/05 06:37:20;;;;;;;4.22;4.05;;;;;;;1.11;92.30;99977.09;4381677;32;20130;-72
2022/01/05 06:39:45;;;;;;;2.80;2.70;;;;;;;1.16;92.52;99983.00;4376994;32;20072;-72
2022/01/05 06:42:11;;;;;;;4.75;4.55;;;;;;;-0.11;91.67;99790.69;4382399;32;20089;-73
2022/01/05 06:44:36;;;;;;;3.30;3.20;;;;;;;0.73;92.36;99913.47;4377991;32;20077;-72
2022/01/05 06:47:02;;;;;;;2.70;2.60;;;;;;;1.21;92.73;100000.97;4380884;32;20077;-71
2022/01/05 06:49:27;;;;;;;3.92;3.78;;;;;;;1.25;91.78;99999.16;4383689;32;20061;-72
2022/01/05 06:51:53;;;;;;;3.00;2.90;;;;;;;1.28;91.48;100006.81;4379352;32;20087;-72
2022/01/05 06:54:18;;;;;;;3.35;3.22;;;;;;;1.30;91.07;100007.63;4384552;32;20084;-72
2022/01/05 06:56:46;;;;;;;2.60;2.50;;;;;;;1.27;92.14;100018.06;4383342;32;20095;-72
2022/01/05 06:59:12;;;;;;;2.70;2.60;;;;;;;1.30;92.47;100016.22;4385446;32;20094;-73
2022/01/05 07:01:37;;;;;;;3.55;3.45;;;;;;;1.33;92.46;100023.09;4383190;32;21038;-72
2022/01/05 07:04:02;;;;;;;2.60;2.50;;;;;;;1.32;92.33;100024.84;4385054;32;20147;-74
2022/01/05 07:06:28;;;;;;;4.25;4.05;;;;;;;1.35;92.06;100027.31;4389661;32;20061;-72
2022/01/05 07:08:53;;;;;;;2.70;2.60;;;;;;;1.38;91.72;100034.16;4382836;32;20108;-71
2022/01/05 07:11:18;;;;;;;3.75;3.60;;;;;;;1.35;91.23;100024.75;4385848;32;20089;-75
2022/01/05 07:13:44;;;;;;;2.50;2.40;;;;;;;1.42;91.57;100029.75;4384084;32;20671;-71
2022/01/05 07:16:09;;;;;;;2.60;2.50;;;;;;;1.43;91.78;100036.63;4386282;32;20088;-72
2022/01/05 07:18:35;;;;;;;3.60;3.50;;;;;;;1.49;91.53;100050.25;4393530;32;20357;-72
2022/01/05 07:21:00;;;;;;;2.70;2.60;;;;;;;1.47;91.34;100041.69;4389157;32;20073;-71
2022/01/05 07:23:25;;;;;;;4.60;4.40;;;;;;;1.47;91.57;100051.19;4394376;32;20103;-73
2022/01/05 07:25:51;;;;;;;2.80;2.70;;;;;;;1.48;92.10;100043.38;4384717;32;20073;-73
2022/01/05 07:28:16;;;;;;;2.67;2.58;;;;;;;1.47;92.70;100044.25;4388563;32;20599;-74
2022/01/05 07:30:41;;;;;;;2.78;2.67;;;;;;;1.38;92.11;100032.44;4383099;32;20199;-72
2022/01/05 07:33:07;;;;;;;2.80;2.70;;;;;;;1.50;91.33;100049.34;4381468;32;20062;-72
2022/01/05 07:35:32;;;;;;;4.35;4.15;;;;;;;1.53;91.89;100046.69;4380755;32;20071;-72
2022/01/05 07:37:57;;;;;;;2.70;2.60;;;;;;;1.50;92.04;100048.50;4392599;32;20066;-72
2022/01/05 07:40:23;;;;;;;4.45;4.25;;;;;;;1.54;91.52;100053.56;4382619;32;20069;-71
2022/01/05 07:42:48;;;;;;;3.55;3.45;;;;;;;1.59;91.49;100046.53;4392681;32;20080;-72
2022/01/05 07:45:14;;;;;;;2.65;2.55;;;;;;;1.40;91.78;100016.84;4368772;32;20065;-73
2022/01/05 07:47:39;;;;;;;2.62;2.53;;;;;;;1.60;91.76;100047.37;4389065;32;20973;-74
2022/01/05 07:50:09;;;;;;;2.72;2.62;;;;;;;1.64;92.15;100056.75;4369720;32;20097;-72
2022/01/05 07:52:34;;;;;;;4.45;4.25;;;;;;;1.61;92.47;100058.59;4366838;32;20057;-72
2022/01/05 07:55:01;;;;;;;2.83;2.72;;;;;;;1.59;93.01;100066.38;4367927;32;20684;-69
2022/01/05 07:57:27;;;;;;;4.65;4.45;;;;;;;1.62;92.75;100062.84;4363727;32;21443;-69
2022/01/05 07:59:52;;;;;;;2.90;2.80;;;;;;;1.62;93.17;100070.63;4368328;32;20078;-69
2022/01/05 08:02:17;;;;;;;3.08;2.97;;;;;;;1.28;93.02;100019.75;4366987;32;20461;-76
2022/01/05 08:04:48;;;;;;;2.80;2.70;;;;;;;1.66;92.92;100083.44;4366089;32;20096;-73
2022/01/05 08:07:13;;;;;;;2.90;2.80;;;;;;;1.66;93.50;100086.00;4369613;32;20584;-73
2022/01/05 08:09:39;;;;;;;2.80;2.70;;;;;;;1.36;93.29;100018.69;4366513;32;20073;-74
2022/01/05 08:12:04;;;;;;;2.70;2.60;;;;;;;1.69;92.63;100085.09;4364048;32;20089;-76
2022/01/05 08:14:30;;;;;;;4.53;4.32;;;;;;;1.72;92.17;100097.94;4369133;32;20263;-72
2022/01/05 08:16:55;;;;;;;2.97;2.87;;;;;;;1.79;92.68;100086.56;4363115;32;20096;-73
2022/01/05 08:19:20;;;;;;;4.40;4.20;;;;;;;1.77;91.74;100088.34;4359708;32;20681;-73
2022/01/05 08:21:46;;;;;;;3.10;3.00;;;;;;;1.66;92.08;100056.72;4363944;32;20097;-74
2022/01/05 08:24:11;;;;;;;2.87;2.78;;;;;;;1.78;92.58;100080.56;4362130;32;20141;-73
2022/01/05 08:26:37;;;;;;;2.95;2.85;;;;;;;1.84;92.46;100084.69;4356513;32;20088;-74
2022/01/05 08:29:02;;;;;;;3.00;2.90;;;;;;;1.84;92.18;100095.03;4365040;32;20453;-72
2022/01/05 08:31:27;;;;;;;4.75;4.55;;;;;;;1.88;92.28;100086.31;4371705;32;20092;-69
2022/01/05 08:33:56;;;;;;;2.80;2.70;;;;;;;1.82;92.04;100085.63;4368330;32;20148;-71
2022/01/05 08:36:21;;;;;;;4.72;4.53;;;;;;;1.93;92.12;100099.16;4385677;32;20069;-71
2022/01/05 08:38:47;;;;;;;2.87;2.78;;;;;;;1.91;91.84;100103.50;4365048;32;20065;-73
2022/01/05 08:41:12;;;;;;;3.03;2.92;;;;;;;1.95;91.42;100099.94;4366535;32;20074;-72
2022/01/05 08:43:37;;;;;;;3.28;3.17;;;;;;;1.92;91.57;100093.09;4368913;32;20101;-73
2022/01/05 08:46:03;;;;;;;2.85;2.75;;;;;;;2.03;91.34;100110.09;4364650;32;20100;-74
2022/01/05 08:48:28;;;;;;;4.75;4.55;;;;;;;2.06;91.36;100107.41;4367053;32;20662;-75
2022/01/05 08:50:53;;;;;;;2.90;2.80;;;;;;;0.42;91.06;99846.22;4375097;32;20445;-74
2022/01/05 08:53:19;;;;;;;3.05;2.95;;;;;;;2.08;91.21;100119.41;4364840;32;20093;-76
2022/01/05 08:55:47;;;;;;;3.05;2.95;;;;;;;2.02;90.42;100114.41;4358906;32;20500;-73
2022/01/05 08:58:13;;;;;;;2.85;2.75;;;;;;;2.07;90.89;100130.69;4358470;32;20162;-73
2022/01/05 09:00:38;;;;;;;17.33;16.52;;;;;;;1.94;90.96;100130.12;4283641;32;20404;-74
2022/01/05 09:03:05;;;;;;;2.97;2.87;;;;;;;2.06;90.92;100128.13;4359274;32;20559;-73
2022/01/05 09:05:30;;;;;;;4.55;4.35;;;;;;;2.01;91.12;100127.41;4366592;32;20073;-72
2022/01/05 09:07:56;;;;;;;2.95;2.85;;;;;;;1.98;91.18;100133.50;4369063;32;20092;-66
2022/01/05 09:10:21;;;;;;;3.50;3.40;;;;;;;2.05;91.41;100126.44;4364164;32;20113;-67
2022/01/05 09:12:46;;;;;;;2.75;2.65;;;;;;;2.11;91.60;100128.87;4361759;32;20093;-67
2022/01/05 09:15:12;;;;;;;2.80;2.70;;;;;;;2.15;91.68;100118.37;4362513;32;20077;-67
2022/01/05 09:17:37;;;;;;;3.42;3.33;;;;;;;2.21;91.62;100119.97;4366285;32;21363;-66
2022/01/05 09:20:04;;;;;;;2.90;2.80;;;;;;;2.30;91.44;100119.69;4365889;32;20073;-66
2022/01/05 09:22:30;;;;;;;4.43;4.22;;;;;;;2.34;91.09;100121.31;4361670;32;21115;-65
2022/01/05 09:24:55;;;;;;;2.90;2.80;;;;;;;2.49;90.70;100114.03;4372531;32;20481;-65
2022/01/05 09:27:21;;;;;;;3.42;3.33;;;;;;;2.52;89.65;100103.56;4365896;32;20085;-66
2022/01/05 09:29:46;;;;;;;3.00;2.90;;;;;;;2.55;89.59;100121.63;4369112;32;20081;-65
2022/01/05 09:32:11;;;;;;;2.92;2.83;;;;;;;2.62;89.93;100115.34;4360967;32;20207;-65
2022/01/05 09:34:40;;;;;;;3.80;3.60;;;;;;;2.73;89.92;100117.66;4361780;32;20081;-65
2022/01/05 09:37:15;;;;;;;3.00;2.90;;;;;;;2.78;89.64;100095.88;4364975;32;20200;-65
2022/01/05 09:42:24;;;;;;;4.80;4.60;;;;;;;2.83;88.83;100121.66;4366287;32;20326;-65
2022/01/05 09:44:49;;;;;;;3.35;3.25;;;;;;;2.69;88.76;100131.59;4366926;32;20097;-65
2022/01/05 09:47:29;;;;;;;2.90;2.80;;;;;;;2.71;88.42;100130.62;4362114;32;20714;-65
2022/01/05 09:49:59;;;;;;;3.10;3.00;;;;;;;2.67;88.98;100142.00;4365728;32;20623;-65
2022/01/05 09:52:24;;;;;;;4.78;4.57;;;;;;;2.46;88.69;100099.41;4369635;32;20191;-65
2022/01/05 09:54:50;;;;;;;3.10;3.00;;;;;;;2.79;88.69;100130.44;4366763;32;20579;-66
2022/01/05 09:57:16;;;;;;;2.83;2.72;;;;;;;0.41;88.50;99746.47;4375078;32;20074;-66
2022/01/05 09:59:41;;;;;;;3.00;2.90;;;;;;;3.01;88.33;100135.81;4362773;32;20074;-65
2022/01/05 10:02:07;;;;;;;3.15;3.05;;;;;;;3.12;87.54;100154.47;4374541;32;20203;-70
2022/01/05 10:04:34;;;;;;;4.68;4.47;;;;;;;3.21;87.31;100148.19;4371437;32;20069;-73
2022/01/05 10:06:59;;;;;;;3.05;2.95;;;;;;;3.07;87.42;100139.97;4350568;32;20066;-73
2022/01/05 10:09:24;;;;;;;4.70;4.50;;;;;;;3.09;86.82;100133.84;4362046;32;20167;-72
2022/01/05 10:11:50;;;;;;;3.20;3.10;;;;;;;3.05;87.25;100115.81;4353020;32;20087;-71
2022/01/05 10:14:16;;;;;;;2.90;2.80;;;;;;;1.88;87.09;99951.75;4350646;32;20093;-73
2022/01/05 10:16:41;;;;;;;3.40;3.30;;;;;;;3.20;87.23;100142.13;4371689;32;20108;-73
2022/01/05 10:19:08;;;;;;;3.00;2.90;;;;;;;3.16;87.08;100150.88;4365423;32;20216;-72
2022/01/05 10:21:38;;;;;;;5.15;4.85;;;;;;;3.29;87.49;100158.31;4360477;32;20073;-73
2022/01/05 10:24:04;;;;;;;3.00;2.90;;;;;;;3.34;87.14;100177.16;4353608;32;20074;-72
2022/01/05 10:26:38;;;;;;;4.43;4.22;;;;;;;3.43;87.39;100157.84;4348139;32;20772;-72
2022/01/05 10:29:07;;;;;;;2.92;2.83;;;;;;;3.51;86.79;100135.16;4348538;32;20431;-72
2022/01/05 10:31:36;;;;;;;4.97;4.78;;;;;;;3.44;85.60;100120.66;4373189;32;20076;-72
2022/01/05 10:34:19;;;;;;;2.90;2.80;;;;;;;3.41;85.87;100147.56;4362375;32;20091;-72
2022/01/05 10:36:44;;;;;;;3.20;3.10;;;;;;;3.44;85.83;100144.84;4379181;32;20873;-71
2022/01/05 10:39:09;;;;;;;3.25;3.15;;;;;;;3.44;86.20;100151.78;4374824;32;20229;-71
2022/01/05 10:41:36;;;;;;;4.45;4.25;;;;;;;3.54;85.83;100140.22;4362161;32;20573;-72
2022/01/05 10:44:12;;;;;;;3.40;3.30;;;;;;;3.62;85.24;100132.19;4355066;32;20099;-71
2022/01/05 10:46:39;;;;;;;3.12;3.03;;;;;;;3.58;84.98;100140.06;4391681;32;20606;-72
2022/01/05 10:49:05;;;;;;;2.90;2.80;;;;;;;3.61;84.61;100141.72;4355395;32;20533;-71
2022/01/05 10:51:31;;;;;;;4.65;4.45;;;;;;;3.75;84.59;100136.09;4373224;32;20652;-69
2022/01/05 10:54:13;;;;;;;3.30;3.20;;;;;;;3.90;84.50;100139.91;4354165;32;20670;-69
2022/01/05 10:56:38;;;;;;;5.73;5.20;;;;;;;3.95;84.66;100133.66;4378223;32;20088;-69
2022/01/05 10:59:04;;;;;;;3.22;3.12;;;;;;;3.99;83.91;100129.22;4381942;32;20143;-69
2022/01/05 11:01:30;;;;;;;5.12;4.93;;;;;;;4.02;83.08;100136.06;4380420;32;20407;-69
2022/01/05 11:03:55;;;;;;;3.17;3.08;;;;;;;4.18;83.78;100152.81;4392015;32;20212;-69
2022/01/05 11:06:20;;;;;;;4.43;4.22;;;;;;;4.23;83.44;100144.84;4378469;32;20924;-68
2022/01/05 11:08:52;;;;;;;2.90;2.80;;;;;;;4.21;83.57;100155.31;4380770;32;20065;-69
2022/01/05 11:11:37;;;;;;;3.25;3.15;;;;;;;4.09;83.59;100151.38;4389209;32;20069;-69
2022/01/05 11:14:06;;;;;;;3.08;2.97;;;;;;;4.09;84.14;100124.53;4374910;32;20093;-69
2022/01/05 11:16:32;;;;;;;3.10;3.00;;;;;;;4.09;84.04;100148.78;4404953;32;20223;-69
2022/01/05 11:19:19;;;;;;;3.20;3.10;;;;;;;4.04;84.42;100137.69;4380307;32;20083;-68
2022/01/05 11:22:08;;;;;;;3.10;3.00;;;;;;;3.82;84.31;100113.38;4388576;32;20080;-68
2022/01/05 11:24:47;;;;;;;4.62;4.43;;;;;;;4.00;84.99;100138.69;4381918;32;20083;-69
2022/01/05 11:27:21;;;;;;;3.30;3.20;;;;;;;3.92;84.86;100145.91;4400766;32;20547;-69
2022/01/05 11:29:47;;;;;;;3.35;3.25;;;;;;;3.85;84.81;100154.78;4389197;32;20087;-68
2022/01/05 11:32:14;;;;;;;3.70;3.50;;;;;;;3.88;85.00;100141.72;4389646;32;20081;-69
2022/01/05 11:34:39;;;;;;;3.45;3.35;;;;;;;3.93;85.62;100134.59;4378427;32;20219;-69